Time;durP1;ratioP1;P1;durP2;ratioP2;P2;SDS_P1;SDS_P2;PMS_P1;PMS_P2;Temp;Humidity;BMP_temperature;BMP_pressure;BME280_temperature;BME280_humidity;BME280_pressure;Samples;Min_cycle;Max_cycle;Signal;HPM_P1;HPM_P2
2022/09/22 00:01:40;;;;;;;6.03;4.45;;;;;;;7.99;82.44;98925.13;4972726;28;20081;-89
2022/09/22 00:04:11;;;;;;;5.22;4.20;;;;;;;7.95;82.83;98934.25;4971781;28;20047;-89
2022/09/22 00:06:46;;;;;;;6.38;4.78;;;;;;;7.99;83.11;98936.38;4987442;28;20097;-91
2022/09/22 00:09:18;;;;;;;4.82;4.20;;;;;;;7.87;82.63;98927.22;4967869;28;20058;-90
2022/09/22 00:11:52;;;;;;;4.72;4.22;;;;;;;7.73;83.16;98920.84;4968269;28;20047;-91
2022/09/22 00:14:25;;;;;;;5.30;4.80;;;;;;;7.92;83.68;98943.25;4954967;28;20487;-91
2022/09/22 00:16:59;;;;;;;7.28;4.60;;;;;;;7.89;83.91;98935.72;4972782;28;20491;-92
2022/09/22 00:19:35;;;;;;;4.30;3.75;;;;;;;7.89;83.64;98929.69;4973220;28;20043;-92
2022/09/22 00:22:06;;;;;;;4.82;4.03;;;;;;;8.01;83.40;98929.19;4956061;28;20449;-92
2022/09/22 00:24:33;;;;;;;6.32;4.40;;;;;;;7.94;82.19;98935.25;4987683;28;20057;-91
2022/09/22 00:27:01;;;;;;;4.82;4.03;;;;;;;7.71;82.42;98921.97;4973099;28;20589;-92
2022/09/22 00:29:37;;;;;;;5.93;5.32;;;;;;;7.54;83.53;98928.16;4974764;28;20039;-92
2022/09/22 00:32:05;;;;;;;5.82;4.22;;;;;;;7.35;84.55;98919.63;4972909;28;20407;-92
2022/09/22 00:34:35;;;;;;;5.38;4.60;;;;;;;7.29;84.50;98903.78;4955789;28;20051;-91
2022/09/22 00:37:02;;;;;;;6.43;4.45;;;;;;;7.38;84.79;98927.16;4972276;28;20054;-91
2022/09/22 00:39:30;;;;;;;6.40;4.55;;;;;;;7.37;84.86;98929.88;4971975;28;20050;-91
2022/09/22 00:41:59;;;;;;;6.10;4.13;;;;;;;7.41;85.05;98931.22;4963403;28;20047;-91
2022/09/22 00:44:34;;;;;;;7.90;4.32;;;;;;;7.27;84.69;98916.19;4973537;28;20050;-91
2022/09/22 00:47:31;;;;;;;5.90;4.10;;;;;;;7.33;85.30;98925.97;4973729;28;20070;-91
2022/09/22 00:50:15;;;;;;;4.78;4.28;;;;;;;7.36;85.64;98928.25;4970516;28;20050;-92
2022/09/22 00:52:55;;;;;;;6.82;4.10;;;;;;;7.31;85.50;98917.47;4972231;28;20042;-91
2022/09/22 00:55:39;;;;;;;4.60;4.20;;;;;;;7.20;85.41;98913.38;4971075;28;20093;-92
2022/09/22 00:58:15;;;;;;;5.80;4.60;;;;;;;7.12;85.59;98908.94;4970928;28;20043;-91
2022/09/22 01:00:45;;;;;;;5.25;4.00;;;;;;;7.16;85.63;98919.88;4986901;28;20136;-90
2022/09/22 01:03:20;;;;;;;4.78;4.13;;;;;;;7.02;85.73;98916.09;4970773;28;20047;-91
2022/09/22 01:05:57;;;;;;;5.13;4.10;;;;;;;6.98;86.40;98919.97;4971578;28;20082;-91
2022/09/22 01:08:30;;;;;;;4.93;3.97;;;;;;;6.97;86.75;98913.94;4971715;28;20038;-91
2022/09/22 01:10:58;;;;;;;5.90;4.18;;;;;;;6.81;87.11;98886.97;4973610;28;20043;-91
2022/09/22 01:13:31;;;;;;;5.85;4.43;;;;;;;6.78;87.22;98897.69;4970377;28;20384;-90
2022/09/22 01:16:22;;;;;;;5.10;4.25;;;;;;;6.72;87.67;98909.59;4971069;28;20070;-90
2022/09/22 01:19:12;;;;;;;7.32;4.75;;;;;;;6.85;88.03;98914.38;4986718;28;20061;-91
2022/09/22 01:21:50;;;;;;;5.30;4.10;;;;;;;6.89;87.08;98913.88;4982914;28;20491;-91
2022/09/22 01:24:41;;;;;;;8.13;3.97;;;;;;;6.94;86.35;98898.59;4956154;28;20138;-91
2022/09/22 01:27:52;;;;;;;4.13;3.38;;;;;;;7.04;85.66;98906.31;4966354;28;20077;-90
2022/09/22 01:30:23;;;;;;;4.25;3.47;;;;;;;7.06;85.03;98901.75;4975464;28;20450;-91
2022/09/22 01:33:16;;;;;;;4.35;3.65;;;;;;;7.12;83.68;98895.06;4976111;28;20081;-91
2022/09/22 01:36:29;;;;;;;5.13;3.65;;;;;;;7.14;83.81;98903.59;4976531;28;20054;-91
2022/09/22 01:39:24;;;;;;;4.93;3.28;;;;;;;7.16;84.14;98894.63;4953619;28;20145;-91
2022/09/22 01:42:06;;;;;;;6.18;4.20;;;;;;;7.13;82.85;98897.53;4976399;28;20450;-91
2022/09/22 01:44:51;;;;;;;6.47;3.75;;;;;;;7.02;83.08;98897.84;4973993;28;20145;-90
2022/09/22 01:47:27;;;;;;;4.78;3.38;;;;;;;7.21;83.08;98905.41;4976098;28;20086;-91
2022/09/22 01:50:06;;;;;;;4.22;3.45;;;;;;;7.27;83.27;98903.94;4971918;28;20121;-91
2022/09/22 01:52:38;;;;;;;3.95;3.22;;;;;;;7.19;82.42;98883.84;4975209;28;20126;-92
2022/09/22 01:55:14;;;;;;;4.57;3.10;;;;;;;7.12;81.62;98889.88;4968461;28;20059;-91
2022/09/22 01:57:54;;;;;;;4.68;3.75;;;;;;;7.11;81.73;98883.84;4966770;28;20491;-91
2022/09/22 02:00:24;;;;;;;3.50;3.13;;;;;;;7.14;82.90;98893.97;4977139;28;20081;-91
2022/09/22 02:03:16;;;;;;;4.63;3.55;;;;;;;7.13;82.48;98891.50;4971096;28;20723;-90
2022/09/22 02:06:00;;;;;;;3.70;3.28;;;;;;;7.06;82.93;98875.66;4950933;28;20082;-90
2022/09/22 02:09:06;;;;;;;4.47;3.05;;;;;;;7.09;82.79;98885.78;4956401;28;20040;-89
2022/09/22 02:11:33;;;;;;;3.92;3.40;;;;;;;7.04;82.26;98882.00;4971376;28;20838;-90
2022/09/22 02:14:03;;;;;;;3.92;3.30;;;;;;;7.05;82.74;98883.66;4971107;28;20067;-91
2022/09/22 02:16:31;;;;;;;3.90;3.25;;;;;;;7.16;82.45;98891.19;4954930;28;20113;-91
2022/09/22 02:19:10;;;;;;;3.65;3.28;;;;;;;7.20;82.44;98892.50;4970221;28;20081;-91
2022/09/22 02:21:43;;;;;;;3.90;3.50;;;;;;;7.18;82.58;98889.22;4953539;28;20499;-91
2022/09/22 02:24:36;;;;;;;6.07;3.65;;;;;;;7.13;82.52;98897.53;4954690;28;20059;-91
2022/09/22 02:27:24;;;;;;;4.45;3.28;;;;;;;7.13;82.42;98902.75;4969247;28;20118;-91
2022/09/22 02:29:59;;;;;;;5.80;3.67;;;;;;;7.13;81.94;98892.31;4970332;28;20075;-91
2022/09/22 02:32:29;;;;;;;5.40;3.20;;;;;;;7.16;81.81;98893.78;4969216;28;20043;-91
2022/09/22 02:34:56;;;;;;;3.88;3.28;;;;;;;7.13;81.61;98900.13;4953500;28;20105;-91
2022/09/22 02:38:02;;;;;;;5.22;2.80;;;;;;;7.12;81.25;98885.47;4938279;29;20070;-91
2022/09/22 02:40:57;;;;;;;6.65;3.20;;;;;;;7.07;81.46;98887.72;4971027;28;20055;-91
2022/09/22 02:43:58;;;;;;;4.22;3.67;;;;;;;6.99;80.68;98890.31;4951557;29;20377;-91
2022/09/22 02:46:38;;;;;;;5.90;3.45;;;;;;;6.94;80.59;98890.78;4966154;28;20167;-91
2022/09/22 02:49:17;;;;;;;6.10;3.60;;;;;;;6.71;81.25;98871.44;4950091;28;20518;-91
2022/09/22 02:51:58;;;;;;;4.13;3.35;;;;;;;6.76;82.31;98878.78;4953326;28;20050;-91
2022/09/22 02:54:25;;;;;;;4.97;3.17;;;;;;;6.73;81.29;98884.34;4953562;28;20065;-91
2022/09/22 02:56:53;;;;;;;3.67;3.38;;;;;;;6.49;80.80;98872.00;4936910;29;20053;-92
2022/09/22 02:59:20;;;;;;;4.85;3.72;;;;;;;6.48;81.27;98871.19;4954213;28;20364;-91
2022/09/22 03:01:48;;;;;;;4.75;3.70;;;;;;;6.47;81.06;98861.69;4948749;29;20557;-91
2022/09/22 03:04:17;;;;;;;4.28;3.30;;;;;;;6.59;81.67;98878.72;4952756;29;20039;-91
2022/09/22 03:06:44;;;;;;;3.45;3.10;;;;;;;6.58;81.48;98882.28;4953522;28;20043;-91
2022/09/22 03:09:10;;;;;;;5.55;3.22;;;;;;;6.54;81.92;98867.94;4968616;28;20399;-92
2022/09/22 03:11:37;;;;;;;4.00;3.10;;;;;;;6.54;82.23;98874.97;4953362;28;20050;-92
2022/09/22 03:14:06;;;;;;;4.32;3.50;;;;;;;6.64;81.98;98889.50;4968434;28;20051;-91
2022/09/22 03:16:33;;;;;;;4.70;2.92;;;;;;;6.61;81.47;98881.19;4949681;29;20512;-92
2022/09/22 03:19:02;;;;;;;4.05;3.30;;;;;;;6.49;81.12;98885.84;4952468;28;20067;-91
2022/09/22 03:21:29;;;;;;;3.17;2.90;;;;;;;6.39;81.93;98877.31;4953817;28;20047;-90
2022/09/22 03:23:55;;;;;;;5.38;3.50;;;;;;;6.33;81.00;98868.31;4952153;28;20051;-91
2022/09/22 03:26:22;;;;;;;5.20;3.13;;;;;;;6.44;81.13;98873.25;4953049;28;20125;-92
2022/09/22 03:28:49;;;;;;;3.50;2.97;;;;;;;6.34;79.70;98863.91;4968850;28;20925;-92
2022/09/22 03:31:16;;;;;;;3.95;3.55;;;;;;;6.28;80.53;98857.53;4954754;29;20050;-92
2022/09/22 03:33:42;;;;;;;3.60;3.20;;;;;;;6.29;79.89;98874.78;4952733;28;20073;-92
2022/09/22 03:36:09;;;;;;;3.45;3.10;;;;;;;6.24;81.42;98856.22;4952433;29;20055;-92
2022/09/22 03:38:36;;;;;;;5.25;3.42;;;;;;;6.16;81.07;98867.38;4937892;29;20039;-91
2022/09/22 03:41:03;;;;;;;4.35;3.30;;;;;;;6.16;80.91;98867.38;4953214;28;20047;-90
2022/09/22 03:43:29;;;;;;;3.42;3.13;;;;;;;6.13;80.72;98862.50;4952557;29;20051;-92
2022/09/22 03:46:01;;;;;;;3.63;3.28;;;;;;;6.35;81.00;98879.38;4953844;28;20047;-91
2022/09/22 03:48:30;;;;;;;4.25;3.22;;;;;;;6.24;80.52;98873.59;4950562;29;20663;-92
2022/09/22 03:51:07;;;;;;;4.18;3.35;;;;;;;6.17;80.17;98853.38;4937465;29;20047;-92
2022/09/22 03:53:35;;;;;;;3.90;3.50;;;;;;;6.20;79.92;98869.69;4966204;28;20051;-91
2022/09/22 03:56:15;;;;;;;5.90;3.10;;;;;;;6.26;80.33;98876.91;4954445;28;20050;-91
2022/09/22 03:58:43;;;;;;;4.13;3.33;;;;;;;5.86;79.96;98867.78;4968747;28;20517;-91
2022/09/22 04:01:11;;;;;;;3.80;3.25;;;;;;;5.69;81.41;98869.41;4952331;28;20109;-91
2022/09/22 04:03:38;;;;;;;3.55;3.25;;;;;;;5.79;81.28;98879.75;4951930;28;20050;-92
2022/09/22 04:06:06;;;;;;;4.80;3.50;;;;;;;5.76;81.54;98869.66;4949745;29;20091;-92
2022/09/22 04:08:35;;;;;;;4.18;3.20;;;;;;;5.62;81.88;98853.59;4951097;29;20070;-91
2022/09/22 04:11:03;;;;;;;4.40;3.40;;;;;;;5.76;81.91;98869.66;4964612;28;20062;-91
2022/09/22 04:13:30;;;;;;;3.33;3.03;;;;;;;5.76;82.54;98869.66;4952938;28;20455;-92
2022/09/22 04:15:56;;;;;;;4.15;3.33;;;;;;;5.71;81.34;98867.50;4951182;28;20055;-91
2022/09/22 04:18:24;;;;;;;3.67;3.38;;;;;;;5.61;81.87;98862.38;4967891;28;20047;-91
2022/09/22 04:20:56;;;;;;;4.50;3.47;;;;;;;5.64;82.17;98856.88;4944351;29;20134;-91
2022/09/22 04:23:25;;;;;;;4.35;3.38;;;;;;;5.83;81.89;98868.91;4967024;28;20070;-91
2022/09/22 04:25:54;;;;;;;10.30;3.95;;;;;;;5.57;80.80;98849.78;4953217;28;20078;-91
2022/09/22 04:28:20;;;;;;;6.47;3.22;;;;;;;5.49;81.90;98871.34;4955204;28;20047;-92
2022/09/22 04:30:48;;;;;;;4.38;3.58;;;;;;;5.42;82.49;98856.50;4952325;28;20479;-92
2022/09/22 04:33:15;;;;;;;4.28;3.83;;;;;;;5.46;82.93;98850.84;4953288;28;20035;-91
2022/09/22 04:35:42;;;;;;;4.68;3.38;;;;;;;5.61;83.00;98864.97;4968870;28;20053;-91
2022/09/22 04:38:09;;;;;;;3.50;3.17;;;;;;;5.58;82.00;98862.69;4952479;28;20130;-92
2022/09/22 04:40:36;;;;;;;5.75;3.15;;;;;;;5.62;82.98;98864.00;4935253;29;20141;-91
2022/09/22 04:43:03;;;;;;;4.07;3.40;;;;;;;5.75;83.44;98873.22;4953867;28;20054;-91
2022/09/22 04:45:30;;;;;;;3.70;3.13;;;;;;;5.82;82.67;98879.47;4951012;29;20056;-91
2022/09/22 04:48:01;;;;;;;4.20;3.53;;;;;;;5.57;81.16;98873.22;4946443;28;20047;-91
2022/09/22 04:50:28;;;;;;;3.35;3.05;;;;;;;5.31;81.69;98847.94;4965317;28;20118;-91
2022/09/22 04:52:56;;;;;;;3.30;3.00;;;;;;;5.38;82.21;98871.56;4947802;29;20146;-90
2022/09/22 04:55:24;;;;;;;3.72;3.00;;;;;;;5.18;82.80;98846.66;4951811;29;20079;-91
2022/09/22 04:57:56;;;;;;;3.50;3.20;;;;;;;5.31;82.98;98844.53;4955200;28;21587;-91
2022/09/22 05:00:26;;;;;;;3.53;3.20;;;;;;;5.53;83.47;98859.69;4955650;28;20094;-89
2022/09/22 05:02:53;;;;;;;3.77;3.43;;;;;;;5.63;81.46;98873.44;4956164;28;20053;-89
2022/09/22 05:05:23;;;;;;;3.80;3.50;;;;;;;5.44;80.86;98854.56;4956306;28;20051;-89
2022/09/22 05:07:53;;;;;;;3.83;3.53;;;;;;;5.32;81.39;98874.75;4956419;28;20047;-88
2022/09/22 05:10:24;;;;;;;4.80;3.63;;;;;;;4.91;82.35;98861.31;4954710;28;20438;-88
2022/09/22 05:12:52;;;;;;;4.80;3.60;;;;;;;4.88;83.48;98853.81;4969990;28;20126;-88
2022/09/22 05:15:21;;;;;;;4.00;3.42;;;;;;;5.02;83.56;98878.50;4970605;28;20114;-88
2022/09/22 05:17:51;;;;;;;4.18;3.78;;;;;;;4.85;83.58;98859.28;4939798;28;20051;-88
2022/09/22 05:20:21;;;;;;;4.30;3.55;;;;;;;4.90;83.74;98854.47;4970437;28;20055;-88
2022/09/22 05:22:48;;;;;;;5.20;3.67;;;;;;;5.09;83.97;98871.75;4958141;28;20499;-88
2022/09/22 05:25:18;;;;;;;4.97;3.42;;;;;;;5.10;83.57;98874.22;4953955;29;20505;-88
2022/09/22 05:27:53;;;;;;;4.38;3.50;;;;;;;5.30;83.04;98874.09;4964510;28;20050;-88
2022/09/22 05:30:24;;;;;;;4.85;3.40;;;;;;;5.43;83.14;98878.94;4965871;28;20047;-88
2022/09/22 05:32:52;;;;;;;4.35;3.30;;;;;;;5.48;83.13;98868.91;4947110;29;20108;-88
2022/09/22 05:35:23;;;;;;;4.68;3.35;;;;;;;5.59;82.78;98885.13;4949207;29;20083;-87
2022/09/22 05:37:52;;;;;;;3.63;3.33;;;;;;;5.61;82.95;98875.38;4954902;29;20043;-87
2022/09/22 05:40:22;;;;;;;4.88;3.75;;;;;;;5.69;82.78;98879.81;4955550;28;20047;-87
2022/09/22 05:42:51;;;;;;;7.60;4.72;;;;;;;5.68;82.41;98877.38;4955083;28;20058;-87
2022/09/22 05:45:20;;;;;;;7.35;4.25;;;;;;;5.80;83.02;98891.81;4954847;28;20094;-87
2022/09/22 05:47:47;;;;;;;5.63;3.95;;;;;;;5.84;82.74;98888.75;4954955;28;20130;-88
2022/09/22 05:50:16;;;;;;;9.38;5.18;;;;;;;5.93;82.62;98892.25;4951572;28;20053;-88
2022/09/22 05:52:43;;;;;;;11.50;6.57;;;;;;;6.01;82.33;98889.75;4965601;28;20043;-88
2022/09/22 05:55:12;;;;;;;19.15;9.93;;;;;;;6.10;81.74;98890.63;4954509;28;20502;-88
2022/09/22 05:57:39;;;;;;;27.08;12.95;;;;;;;6.12;80.76;98891.28;4954770;28;20380;-88
2022/09/22 06:00:07;;;;;;;27.90;12.25;;;;;;;6.08;80.93;98879.53;4954132;28;20049;-87
2022/09/22 06:02:34;;;;;;;27.90;11.75;;;;;;;6.19;80.93;98894.94;4955267;28;20138;-87
2022/09/22 06:05:01;;;;;;;17.95;9.45;;;;;;;6.23;80.58;98882.41;4954151;28;20091;-87
2022/09/22 06:07:28;;;;;;;15.65;8.50;;;;;;;6.21;81.21;98874.75;4954277;28;20126;-88
2022/09/22 06:09:54;;;;;;;18.13;9.15;;;;;;;6.25;81.18;98875.28;4952665;28;20055;-87
2022/09/22 06:12:21;;;;;;;19.85;8.43;;;;;;;6.45;80.67;98900.13;4942266;29;20418;-87
2022/09/22 06:14:47;;;;;;;15.68;8.95;;;;;;;6.51;80.78;98899.53;4938482;29;20131;-88
2022/09/22 06:17:14;;;;;;;14.35;7.78;;;;;;;6.44;81.58;98885.47;4954096;28;20468;-87
2022/09/22 06:19:42;;;;;;;11.07;6.15;;;;;;;6.52;81.57;98898.53;4966389;28;20052;-87
2022/09/22 06:22:10;;;;;;;6.75;5.53;;;;;;;6.62;81.39;98899.25;4937793;29;20044;-88
2022/09/22 06:24:36;;;;;;;6.75;5.00;;;;;;;6.67;81.35;98897.00;4953049;28;20046;-88
2022/09/22 06:27:03;;;;;;;11.15;6.38;;;;;;;6.62;79.33;98888.84;4968790;28;20047;-88
2022/09/22 06:29:30;;;;;;;7.57;5.75;;;;;;;6.73;80.84;98905.19;4953754;28;20071;-88
2022/09/22 06:31:57;;;;;;;7.25;5.38;;;;;;;6.75;81.23;98874.56;4969051;28;20466;-89
2022/09/22 06:34:26;;;;;;;7.38;5.63;;;;;;;6.91;80.85;98895.50;4953448;28;20057;-89
2022/09/22 06:36:56;;;;;;;7.30;5.10;;;;;;;6.99;80.78;98895.53;4955058;28;20471;-90
2022/09/22 06:39:25;;;;;;;9.53;5.17;;;;;;;7.00;79.76;98883.28;4953667;28;20474;-90
2022/09/22 06:41:55;;;;;;;7.25;4.70;;;;;;;7.09;78.34;98898.84;4954120;28;20074;-90
2022/09/22 06:44:22;;;;;;;6.93;4.75;;;;;;;7.24;78.89;98889.41;4956622;28;20460;-90
2022/09/22 06:46:48;;;;;;;6.75;4.60;;;;;;;7.29;77.63;98890.72;4953268;29;20499;-89
2022/09/22 06:49:15;;;;;;;5.25;4.30;;;;;;;7.39;77.73;98875.75;4950476;28;20851;-89
2022/09/22 06:51:46;;;;;;;8.75;4.68;;;;;;;7.56;77.74;98887.88;4967615;28;20130;-89
2022/09/22 06:54:13;;;;;;;5.55;4.28;;;;;;;7.73;77.54;98889.50;4952819;28;20039;-90
2022/09/22 06:56:41;;;;;;;5.32;4.68;;;;;;;7.88;77.18;98878.44;4952112;28;20150;-89
2022/09/22 06:59:11;;;;;;;6.30;4.60;;;;;;;8.04;77.55;98896.72;4953189;28;20063;-89
2022/09/22 07:01:40;;;;;;;5.70;4.85;;;;;;;8.08;75.40;98887.56;4953400;28;20047;-90
2022/09/22 07:04:09;;;;;;;5.10;4.35;;;;;;;8.11;75.70;98889.84;4953658;28;20039;-90
2022/09/22 07:06:38;;;;;;;5.43;4.80;;;;;;;8.03;76.08;98905.50;4949361;29;20074;-90
2022/09/22 07:09:07;;;;;;;9.07;5.65;;;;;;;8.12;76.21;98899.31;4953223;29;20055;-90
2022/09/22 07:11:40;;;;;;;8.55;5.10;;;;;;;8.11;75.02;98889.84;4957029;28;20053;-90
2022/09/22 07:14:07;;;;;;;8.02;5.38;;;;;;;8.33;76.31;98902.22;4968249;28;20051;-90
2022/09/22 07:16:35;;;;;;;7.35;5.10;;;;;;;8.56;76.81;98897.16;4963031;28;20041;-90
2022/09/22 07:19:04;;;;;;;5.68;4.93;;;;;;;8.82;74.91;98891.72;4934087;29;20043;-90
2022/09/22 07:21:35;;;;;;;8.43;5.30;;;;;;;9.01;75.51;98890.50;4945125;29;20134;-90
2022/09/22 07:24:04;;;;;;;8.75;5.30;;;;;;;9.16;76.06;98893.19;4967967;28;20039;-89
2022/09/22 07:26:37;;;;;;;8.68;5.40;;;;;;;9.21;74.15;98880.41;4951805;29;20079;-91
2022/09/22 07:29:10;;;;;;;6.10;4.97;;;;;;;9.25;74.65;98870.41;4952283;28;20043;-90
2022/09/22 07:31:39;;;;;;;7.43;5.43;;;;;;;9.42;73.77;98886.84;4949389;29;20050;-90
2022/09/22 07:34:06;;;;;;;7.20;5.35;;;;;;;9.56;74.02;98884.28;4951278;28;20051;-89
2022/09/22 07:36:35;;;;;;;8.02;5.85;;;;;;;9.75;73.54;98875.16;4952093;28;20039;-89
2022/09/22 07:39:09;;;;;;;9.57;5.95;;;;;;;10.05;73.53;98898.84;4951749;28;20438;-89
2022/09/22 07:41:45;;;;;;;8.82;6.18;;;;;;;9.97;72.64;98883.19;4951085;29;20101;-89
2022/09/22 07:47:01;;;;;;;11.02;5.85;;;;;;;10.19;74.51;98893.66;4942083;29;20043;-89
2022/09/22 07:49:28;;;;;;;7.72;5.80;;;;;;;10.21;71.55;98882.97;4950989;28;20035;-91
2022/09/22 07:51:57;;;;;;;7.20;5.70;;;;;;;10.22;70.60;98870.69;4964127;28;20142;-91
2022/09/22 07:54:26;;;;;;;8.25;5.78;;;;;;;10.43;72.53;98887.41;4967333;28;20423;-90
2022/09/22 07:57:01;;;;;;;7.30;6.05;;;;;;;10.48;70.70;98883.41;4953393;28;20511;-89
2022/09/22 07:59:27;;;;;;;7.72;5.97;;;;;;;10.35;71.15;98869.09;4952318;28;20515;-89
2022/09/22 08:01:54;;;;;;;7.95;6.03;;;;;;;10.47;72.74;98871.28;4950325;28;20058;-89
2022/09/22 08:04:22;;;;;;;6.70;6.00;;;;;;;10.59;72.16;98859.34;4954119;28;20411;-88
2022/09/22 08:06:54;;;;;;;10.88;5.97;;;;;;;10.88;71.39;98888.22;4953296;28;20071;-88
2022/09/22 08:09:25;;;;;;;7.20;6.38;;;;;;;11.02;71.47;98880.50;4969855;28;20047;-90
2022/09/22 08:11:52;;;;;;;7.40;6.07;;;;;;;10.78;69.42;98869.28;4936179;29;20411;-89
2022/09/22 08:14:22;;;;;;;8.25;6.10;;;;;;;11.09;71.46;98878.75;4950789;29;20043;-88
2022/09/22 08:16:50;;;;;;;8.10;5.55;;;;;;;11.18;70.80;98875.06;4950691;29;20043;-90
2022/09/22 08:19:17;;;;;;;8.65;6.90;;;;;;;11.20;71.14;98878.31;4952179;28;20138;-89
2022/09/22 08:21:48;;;;;;;6.55;5.82;;;;;;;11.40;72.18;98874.09;4952096;28;20055;-89
2022/09/22 08:24:20;;;;;;;9.05;5.88;;;;;;;11.46;71.69;98868.09;4952412;28;20087;-91
2022/09/22 08:26:51;;;;;;;6.38;5.75;;;;;;;11.75;71.14;98874.22;4957096;28;20126;-89
2022/09/22 08:29:19;;;;;;;7.45;5.82;;;;;;;12.01;72.27;98879.75;4952063;29;20495;-89
2022/09/22 08:31:46;;;;;;;9.07;6.20;;;;;;;12.24;70.73;98882.19;4952073;28;20154;-88
2022/09/22 08:34:17;;;;;;;8.18;6.95;;;;;;;12.33;69.90;98880.22;4955190;28;20054;-90
2022/09/22 08:36:45;;;;;;;7.57;5.93;;;;;;;12.08;67.23;98860.59;4954518;29;20039;-91
2022/09/22 08:39:14;;;;;;;9.73;7.25;;;;;;;12.33;70.00;98880.22;4954271;29;20047;-89
2022/09/22 08:41:46;;;;;;;8.68;7.10;;;;;;;12.33;67.52;98877.56;4953982;29;20154;-88
2022/09/22 08:44:22;;;;;;;6.85;6.13;;;;;;;12.38;69.12;98875.19;4955331;28;20527;-89
2022/09/22 08:46:52;;;;;;;8.75;6.38;;;;;;;12.53;69.90;98875.91;4954516;28;20627;-88
2022/09/22 08:52:38;;;;;;;11.20;8.00;;;;;;;12.70;67.47;98870.31;4958260;28;20077;-88
2022/09/22 08:55:23;;;;;;;5.90;4.75;;;;;;;12.81;67.11;98864.50;4949150;29;20114;-89
2022/09/22 08:58:07;;;;;;;5.70;4.78;;;;;;;12.76;66.56;98869.53;4956525;29;20145;-88
2022/09/22 09:01:19;;;;;;;7.68;6.07;;;;;;;12.93;67.09;98876.09;4953007;29;20123;-88
2022/09/22 09:04:26;;;;;;;8.02;5.88;;;;;;;13.00;67.16;98881.41;4934302;29;20059;-87
2022/09/22 09:07:14;;;;;;;6.78;5.95;;;;;;;13.21;67.01;98872.63;4968735;28;20049;-88
2022/09/22 09:10:19;;;;;;;6.53;5.75;;;;;;;13.31;66.33;98878.31;4956310;28;20070;-88
2022/09/22 09:13:07;;;;;;;7.65;6.05;;;;;;;13.45;66.57;98879.19;4952008;29;20548;-88
2022/09/22 09:15:52;;;;;;;8.50;5.75;;;;;;;13.46;66.11;98870.25;4951684;29;20083;-86
2022/09/22 09:18:31;;;;;;;6.78;5.55;;;;;;;13.72;66.71;98875.56;4951356;28;20411;-87
2022/09/22 09:21:04;;;;;;;6.10;4.93;;;;;;;13.89;63.59;98876.81;4954973;28;20039;-89
2022/09/22 09:23:44;;;;;;;9.30;6.00;;;;;;;13.93;64.20;98853.50;4954059;28;20055;-88
2022/09/22 09:26:34;;;;;;;5.32;4.70;;;;;;;13.94;64.68;98863.03;4956486;28;20079;-87
2022/09/22 09:29:07;;;;;;;12.93;5.78;;;;;;;13.93;63.10;98864.06;4951398;28;20047;-89
2022/09/22 09:31:52;;;;;;;6.20;4.65;;;;;;;14.14;64.08;98869.09;4948645;28;20035;-88
2022/09/22 09:34:25;;;;;;;6.55;4.50;;;;;;;14.27;63.85;98870.91;4961733;28;20043;-87
2022/09/22 09:37:06;;;;;;;5.47;4.47;;;;;;;14.36;64.69;98861.78;4946328;28;20055;-87
2022/09/22 09:39:37;;;;;;;5.57;3.90;;;;;;;14.55;63.12;98865.44;4949452;28;20043;-89
2022/09/22 09:42:19;;;;;;;5.43;4.72;;;;;;;14.50;61.71;98861.78;4955468;28;20565;-88
2022/09/22 09:44:52;;;;;;;7.32;4.20;;;;;;;14.68;62.93;98865.41;4968048;28;20059;-91
2022/09/22 09:47:41;;;;;;;5.72;4.10;;;;;;;14.77;62.80;98865.19;4958776;28;20046;-90
2022/09/22 09:50:12;;;;;;;5.22;4.25;;;;;;;14.87;64.19;98868.19;4965507;28;20562;-91
2022/09/22 09:52:39;;;;;;;4.82;3.97;;;;;;;14.92;62.71;98858.63;4952080;29;20079;-91
2022/09/22 09:55:24;;;;;;;4.88;4.20;;;;;;;14.99;60.08;98850.69;4951952;29;20541;-91
2022/09/22 09:58:05;;;;;;;4.50;3.45;;;;;;;15.14;60.32;98855.72;4953802;29;20069;-90
2022/09/22 10:00:51;;;;;;;6.15;3.80;;;;;;;15.00;57.20;98857.59;4968127;28;20575;-93
2022/09/22 10:03:39;;;;;;;4.00;3.28;;;;;;;14.89;58.09;98847.69;4953222;28;20640;-91
2022/09/22 10:06:09;;;;;;;4.00;2.90;;;;;;;14.90;59.31;98862.50;4966465;28;20043;-91
2022/09/22 10:08:48;;;;;;;5.25;3.33;;;;;;;14.80;59.63;98846.28;4951648;28;20061;-90
2022/09/22 10:11:14;;;;;;;4.47;3.55;;;;;;;14.80;59.29;98841.81;4951233;28;21029;-92
2022/09/22 10:13:43;;;;;;;4.05;3.38;;;;;;;15.07;59.21;98841.72;4967442;28;20051;-92
2022/09/22 10:16:25;;;;;;;5.80;3.28;;;;;;;15.14;58.92;98845.94;4952831;28;20082;-91
2022/09/22 10:18:58;;;;;;;5.60;3.05;;;;;;;15.12;56.67;98840.09;4951308;29;20047;-91
2022/09/22 10:21:27;;;;;;;4.85;3.40;;;;;;;15.17;58.66;98836.78;4966223;28;20126;-90
2022/09/22 10:23:59;;;;;;;3.05;2.75;;;;;;;15.26;56.45;98828.41;4954165;28;20075;-90
2022/09/22 10:26:28;;;;;;;4.82;2.42;;;;;;;15.38;56.04;98831.19;4947812;28;20111;-91
2022/09/22 10:29:17;;;;;;;2.60;2.40;;;;;;;15.58;58.81;98820.47;4952626;28;20095;-90
2022/09/22 10:32:15;;;;;;;5.40;2.67;;;;;;;15.18;58.61;98818.09;4939452;29;20069;-90
2022/09/22 10:34:50;;;;;;;2.70;2.40;;;;;;;15.42;56.77;98815.72;4953050;29;20055;-90
2022/09/22 10:37:26;;;;;;;5.18;2.70;;;;;;;15.38;59.06;98817.97;4956158;29;20054;-90
2022/09/22 10:40:00;;;;;;;2.40;2.20;;;;;;;15.58;54.86;98807.25;4948569;29;20094;-89
2022/09/22 10:42:44;;;;;;;3.05;2.10;;;;;;;16.03;54.53;98809.81;4945506;28;20047;-90
2022/09/22 10:45:14;;;;;;;3.17;2.20;;;;;;;16.13;52.73;98801.34;4946477;29;20043;-90
2022/09/22 10:48:07;;;;;;;4.97;2.10;;;;;;;16.33;53.97;98818.69;4970326;28;20126;-91
2022/09/22 10:50:49;;;;;;;2.85;2.13;;;;;;;16.51;53.14;98811.78;4949098;28;20090;-90
2022/09/22 10:53:31;;;;;;;4.70;2.40;;;;;;;16.77;51.89;98811.50;4947759;29;20522;-91
2022/09/22 10:56:05;;;;;;;2.63;2.13;;;;;;;16.92;53.75;98803.19;4952906;28;20047;-92
2022/09/22 10:59:14;;;;;;;1.90;1.63;;;;;;;16.93;49.20;98798.69;4951584;29;20043;-90
2022/09/22 11:02:17;;;;;;;4.47;1.63;;;;;;;17.13;48.07;98800.03;4931114;29;20387;-91
2022/09/22 11:12:21;;;;;;;2.70;1.80;;;;;;;17.63;46.13;98804.22;4934660;29;20064;-92
2022/09/22 11:15:32;;;;;;;1.85;1.60;;;;;;;17.59;48.02;98793.25;4946838;29;20059;-90
2022/09/22 11:18:21;;;;;;;2.03;1.88;;;;;;;17.95;49.35;98791.50;4966964;28;20460;-91
2022/09/22 11:21:07;;;;;;;2.45;2.05;;;;;;;17.94;47.13;98784.56;4953833;28;20404;-92
2022/09/22 11:23:58;;;;;;;3.35;1.80;;;;;;;18.04;45.21;98794.59;4954281;29;20122;-91
2022/09/22 11:26:46;;;;;;;2.47;2.00;;;;;;;17.98;46.77;98795.53;4970339;28;20451;-91
2022/09/22 11:29:58;;;;;;;2.40;1.90;;;;;;;17.97;46.24;98784.09;4934440;29;20075;-90
2022/09/22 11:32:40;;;;;;;;;;;;;;;17.86;45.32;98788.34;4969620;28;20503;-91
2022/09/22 11:35:43;;;;;;;2.33;1.70;;;;;;;17.78;46.56;98767.47;4954703;29;19945;-91
2022/09/22 11:38:52;;;;;;;3.58;2.10;;;;;;;17.92;49.74;98782.13;4935553;29;20352;-92
2022/09/22 11:41:53;;;;;;;5.05;2.08;;;;;;;17.85;50.07;98770.81;4946354;29;20535;-90
2022/09/22 11:44:27;;;;;;;1.95;1.40;;;;;;;17.80;44.35;98765.41;4933371;29;20051;-92
2022/09/22 11:47:24;;;;;;;3.15;1.95;;;;;;;17.51;47.27;98768.91;4954454;29;20126;-92
2022/09/22 11:50:25;;;;;;;2.55;1.90;;;;;;;17.50;46.02;98761.97;4965840;28;20047;-91
2022/09/22 11:53:26;;;;;;;4.85;2.05;;;;;;;17.52;47.93;98752.78;4947556;29;20093;-91
2022/09/22 11:56:41;;;;;;;3.30;1.90;;;;;;;17.83;47.59;98764.16;4942759;29;20045;-91
2022/09/22 11:59:51;;;;;;;2.13;1.20;;;;;;;18.15;44.31;98751.31;4960981;28;20087;-90
2022/09/22 12:02:39;;;;;;;2.47;2.05;;;;;;;17.95;46.63;98749.03;4960406;28;20047;-91
2022/09/22 12:05:21;;;;;;;2.35;1.95;;;;;;;17.86;47.30;98745.91;4945643;29;20517;-91
2022/09/22 12:07:58;;;;;;;2.80;2.03;;;;;;;17.69;47.16;98755.56;4954308;28;20052;-91
2022/09/22 12:10:41;;;;;;;1.92;1.63;;;;;;;17.87;49.30;98749.34;4954107;28;20472;-93
2022/09/22 12:13:27;;;;;;;4.13;2.10;;;;;;;17.97;48.43;98738.19;4952800;28;20047;-90
2022/09/22 12:16:09;;;;;;;3.15;1.90;;;;;;;17.69;46.60;98739.63;4951721;28;20720;-92
2022/09/22 12:18:51;;;;;;;3.75;2.00;;;;;;;17.71;46.91;98737.56;4969442;28;20106;-92
2022/09/22 12:21:36;;;;;;;2.85;1.60;;;;;;;17.60;47.52;98735.72;4953824;29;20054;-92
2022/09/22 12:24:08;;;;;;;2.50;2.17;;;;;;;17.53;47.22;98730.53;4951572;29;20511;-93
2022/09/22 12:26:39;;;;;;;2.30;2.10;;;;;;;17.06;47.35;98719.00;4967375;28;20119;-90
2022/09/22 12:29:26;;;;;;;2.70;2.00;;;;;;;16.58;47.94;98727.78;4953694;28;20051;-91
2022/09/22 12:31:57;;;;;;;3.38;2.10;;;;;;;16.48;49.92;98727.47;4952985;29;20102;-92